Time;durP1;ratioP1;P1;durP2;ratioP2;P2;SDS_P1;SDS_P2;PMS_P1;PMS_P2;Temp;Humidity;BMP_temperature;BMP_pressure;BME280_temperature;BME280_humidity;BME280_pressure;Samples;Min_cycle;Max_cycle;Signal;HPM_P1;HPM_P2
2021/12/16 00:04:17;;;;;;;5.90;0.43;;;;;;;;;;5049721;28;20453;-69
2021/12/16 00:07:06;;;;;;;0.50;0.20;;;9.20;1.00;;;;;;5043617;28;20451;-68
2021/12/16 00:09:44;;;;;;;0.70;0.63;;;9.00;1.00;;;;;;5045577;28;20553;-69
2021/12/16 00:29:31;;;;;;;0.50;0.10;;;8.80;1.00;;;;;;5054771;28;20535;-69
2021/12/16 00:32:05;;;;;;;0.63;0.47;;;8.80;1.00;;;;;;5054556;28;20471;-69
2021/12/16 00:34:33;;;;;;;0.50;0.10;;;8.90;1.00;;;;;;5042498;28;20443;-69
2021/12/16 00:37:02;;;;;;;0.50;0.10;;;8.90;1.00;;;;;;5034598;28;20442;-69
2021/12/16 00:39:34;;;;;;;0.50;0.10;;;8.90;1.00;;;;;;5034047;28;20483;-69
2021/12/16 00:42:09;;;;;;;0.60;0.10;;;8.90;1.00;;;;;;5034009;28;20451;-68
2021/12/16 00:45:08;;;;;;;0.50;0.10;;;8.90;1.00;;;;;;5034123;28;21147;-68
2021/12/16 00:47:48;;;;;;;0.57;0.33;;;8.90;1.00;;;;;;5038271;28;20449;-68
2021/12/16 00:55:56;;;;;;;1.07;0.97;;;8.90;1.00;;;;;;5053130;28;20448;-68
2021/12/16 00:58:29;;;;;;;0.93;0.83;;;8.90;1.00;;;;;;5053682;28;20485;-68
2021/12/16 01:01:06;;;;;;;0.50;0.10;;;8.90;1.00;;;;;;5053673;28;20449;-68
2021/12/16 01:03:42;;;;;;;0.50;0.10;;;8.90;1.00;;;;;;5052920;28;20448;-69
2021/12/16 01:06:33;;;;;;;0.50;0.20;;;8.90;1.00;;;;;;5053164;28;20464;-68
2021/12/16 01:09:16;;;;;;;1.47;0.50;;;8.90;1.00;;;;;;5053589;28;20496;-68
2021/12/16 01:34:23;;;;;;;4.33;4.03;;;8.90;1.00;;;;;;5032858;28;20439;-67
2021/12/16 01:40:11;;;;;;;1.67;1.20;;;8.90;1.00;;;;;;5034936;28;20497;-67
2021/12/16 01:45:31;;;;;;;0.50;0.10;;;8.90;1.00;;;;;;5052917;28;20438;-69
2021/12/16 01:51:20;;;;;;;0.50;0.10;;;8.90;1.00;;;;;;5036086;28;20454;-69
2021/12/16 01:56:45;;;;;;;0.60;0.50;;;8.80;1.00;;;;;;5042522;28;20458;-69
2021/12/16 01:59:18;;;;;;;0.57;0.27;;;8.90;1.00;;;;;;5044562;28;20847;-69
2021/12/16 02:01:48;;;;;;;0.50;0.10;;;8.90;1.00;;;;;;5032395;28;20935;-67
2021/12/16 02:04:24;;;;;;;0.50;0.10;;;8.90;1.00;;;;;;5031570;28;20439;-68
2021/12/16 02:07:07;;;;;;;0.50;0.10;;;8.90;1.00;;;;;;5032305;28;20939;-69
2021/12/16 02:09:40;;;;;;;0.50;0.10;;;9.00;1.00;;;;;;5034646;28;20474;-69
2021/12/16 02:12:18;;;;;;;0.50;0.10;;;9.00;1.00;;;;;;5050985;28;20507;-68
2021/12/16 02:29:06;;;;;;;0.50;0.10;;;8.80;1.00;;;;;;5032041;28;20448;-67
2021/12/16 02:31:49;;;;;;;0.50;0.10;;;8.80;1.00;;;;;;5052224;28;20833;-68
2021/12/16 02:34:29;;;;;;;1.60;0.93;;;8.80;1.00;;;;;;5053084;28;20418;-68
2021/12/16 02:36:58;;;;;;;2.77;2.37;;;8.80;1.00;;;;;;5052869;28;20445;-68
2021/12/16 02:39:30;;;;;;;1.47;1.37;;;8.60;1.00;;;;;;5050401;28;20489;-69
2021/12/16 02:42:03;;;;;;;0.50;0.10;;;8.60;1.00;;;;;;5032336;28;20447;-68
2021/12/16 02:44:35;;;;;;;3.47;2.73;;;8.50;1.00;;;;;;5032088;28;20438;-68
2021/12/16 02:49:52;;;;;;;0.50;0.10;;;8.50;1.00;;;;;;5036791;28;20473;-68
2021/12/16 02:52:24;;;;;;;0.50;0.10;;;8.50;1.00;;;;;;5051439;28;20449;-69
2021/12/16 02:54:52;;;;;;;0.50;0.10;;;8.60;1.00;;;;;;5051547;28;20434;-69
2021/12/16 02:57:20;;;;;;;0.50;0.10;;;8.60;1.00;;;;;;5051642;28;20450;-69
2021/12/16 02:59:50;;;;;;;0.60;0.30;;;8.70;1.00;;;;;;5046955;28;20919;-69
2021/12/16 03:02:20;;;;;;;0.50;0.20;;;8.70;1.00;;;;;;5031465;28;20460;-68
2021/12/16 03:04:51;;;;;;;2.40;2.20;;;8.70;1.00;;;;;;5031559;28;20434;-68
2021/12/16 03:07:21;;;;;;;0.50;0.20;;;8.60;1.00;;;;;;5032064;28;20528;-69
2021/12/16 03:13:01;;;;;;;0.50;0.10;;;8.50;1.00;;;;;;5051546;28;20445;-69
2021/12/16 03:15:51;;;;;;;0.60;0.40;;;8.50;1.00;;;;;;5051522;28;20512;-68
2021/12/16 03:18:27;;;;;;;1.10;0.70;;;;;;;;;;5051832;28;20940;-67
2021/12/16 03:21:01;;;;;;;0.50;0.10;;;8.40;1.00;;;;;;5037869;28;20466;-67
2021/12/16 03:23:45;;;;;;;0.50;0.10;;;8.40;1.00;;;;;;5031455;28;20512;-68
2021/12/16 03:26:46;;;;;;;0.50;0.10;;;8.40;1.00;;;;;;5031450;28;20453;-69
2021/12/16 03:29:40;;;;;;;0.70;0.70;;;8.60;1.00;;;;;;5035337;28;20480;-69
2021/12/16 03:32:48;;;;;;;0.50;0.10;;;8.60;1.00;;;;;;5035412;28;20453;-69
2021/12/16 03:35:30;;;;;;;6.47;6.03;;;8.60;1.00;;;;;;5034839;28;20448;-69
2021/12/16 03:38:02;;;;;;;0.50;0.10;;;8.60;1.00;;;;;;5034897;28;20442;-69
2021/12/16 03:40:33;;;;;;;0.50;0.10;;;8.70;1.00;;;;;;5035382;28;20488;-68
2021/12/16 03:43:05;;;;;;;0.50;0.10;;;8.70;1.00;;;;;;5035167;28;20445;-69
2021/12/16 03:48:30;;;;;;;0.50;0.10;;;8.70;1.00;;;;;;5034829;28;20455;-68
2021/12/16 03:50:59;;;;;;;0.50;0.10;;;8.70;1.00;;;;;;5047473;28;20447;-69
2021/12/16 03:53:28;;;;;;;0.83;0.30;;;9.90;1.00;;;;;;5054717;28;20444;-68
2021/12/16 03:55:57;;;;;;;3.40;3.20;;;8.60;1.00;;;;;;5054715;28;20964;-68
2021/12/16 03:58:25;;;;;;;0.50;0.20;;;8.40;1.00;;;;;;5055318;28;20449;-68
2021/12/16 04:00:56;;;;;;;0.50;0.10;;;8.40;1.00;;;;;;5042272;28;20478;-69
2021/12/16 04:03:25;;;;;;;2.83;2.63;;;8.30;1.00;;;;;;5034796;28;20513;-68
2021/12/16 04:05:53;;;;;;;1.10;1.03;;;8.30;1.00;;;;;;5034242;28;20442;-70
2021/12/16 04:08:21;;;;;;;0.70;0.40;;;8.20;1.00;;;;;;5034412;28;20823;-68
2021/12/16 04:11:00;;;;;;;0.50;0.20;;;8.20;1.00;;;;;;5106691;22;20505;-70
2021/12/16 04:13:30;;;;;;;1.07;0.90;;;8.20;1.00;;;;;;5093653;28;20452;-71
2021/12/16 04:15:57;;;;;;;8.80;2.80;;;8.10;1.00;;;;;;5094185;28;20444;-71
2021/12/16 04:18:26;;;;;;;0.60;0.43;;;8.20;1.00;;;;;;5094916;28;20440;-71
2021/12/16 04:20:54;;;;;;;4.10;3.70;;;8.20;1.00;;;;;;5094324;28;20491;-71
2021/12/16 04:23:22;;;;;;;0.60;0.30;;;8.20;1.00;;;;;;5094946;28;20439;-71
2021/12/16 04:25:50;;;;;;;1.40;1.30;;;8.20;1.00;;;;;;5093916;28;20792;-71
2021/12/16 04:28:22;;;;;;;0.50;0.20;;;8.20;1.00;;;;;;5094122;28;20521;-71
2021/12/16 04:30:52;;;;;;;0.50;0.10;;;8.20;1.00;;;;;;5093955;28;20467;-71
2021/12/16 04:33:21;;;;;;;0.50;0.10;;;8.20;1.00;;;;;;5094343;28;20444;-71
2021/12/16 04:35:49;;;;;;;0.50;0.10;;;8.20;1.00;;;;;;5093889;28;20455;-71
2021/12/16 04:38:17;;;;;;;0.83;0.57;;;8.30;1.00;;;;;;5093568;28;20942;-71
2021/12/16 04:40:48;;;;;;;0.50;0.10;;;8.30;1.00;;;;;;5093151;28;20475;-71
2021/12/16 04:43:20;;;;;;;0.50;0.10;;;8.30;1.00;;;;;;5093720;28;20439;-71
2021/12/16 04:45:49;;;;;;;0.50;0.10;;;8.30;1.00;;;;;;5093341;28;20930;-71
2021/12/16 04:48:19;;;;;;;0.50;0.10;;;8.40;1.00;;;;;;5093699;28;20448;-71
2021/12/16 04:50:48;;;;;;;0.50;0.10;;;8.40;1.00;;;;;;5094000;28;20467;-72
2021/12/16 04:53:16;;;;;;;0.50;0.10;;;8.40;1.00;;;;;;5094480;28;20963;-69
2021/12/16 04:55:44;;;;;;;0.50;0.20;;;8.50;1.00;;;;;;5094371;28;20447;-71
2021/12/16 04:58:12;;;;;;;0.50;0.10;;;8.50;1.00;;;;;;5094215;28;20444;-71
2021/12/16 05:00:40;;;;;;;0.50;0.10;;;8.60;1.00;;;;;;5092694;28;20482;-71
2021/12/16 05:03:08;;;;;;;0.50;0.10;;;8.60;1.00;;;;;;5093430;28;20923;-69
2021/12/16 05:05:37;;;;;;;0.50;0.10;;;8.60;1.00;;;;;;5092873;28;20440;-70
2021/12/16 05:08:05;;;;;;;0.50;0.10;;;8.70;1.00;;;;;;5092287;28;20460;-70
2021/12/16 05:10:33;;;;;;;0.50;0.10;;;8.70;1.00;;;;;;5092811;28;20486;-70
2021/12/16 05:13:03;;;;;;;0.50;0.10;;;8.70;1.00;;;;;;5093349;28;20457;-70
2021/12/16 05:15:35;;;;;;;0.50;0.10;;;8.70;1.00;;;;;;5092947;28;20447;-70
2021/12/16 05:18:06;;;;;;;0.50;0.20;;;8.70;1.00;;;;;;5092945;28;20814;-70
2021/12/16 05:20:40;;;;;;;0.60;0.10;;;8.80;1.00;;;;;;5092652;28;20480;-70
2021/12/16 05:26:14;;;;;;;0.50;0.10;;;8.70;1.00;;;;;;5093055;28;20432;-69
2021/12/16 05:28:45;;;;;;;23.33;22.03;;;8.80;1.00;;;;;;5093036;28;20436;-71
2021/12/16 05:31:18;;;;;;;0.50;0.10;;;8.80;1.00;;;;;;5089271;28;20448;-69
2021/12/16 05:33:46;;;;;;;0.50;0.10;;;8.80;1.00;;;;;;5092796;28;20458;-70
2021/12/16 05:36:16;;;;;;;0.50;0.10;;;8.80;1.00;;;;;;5084442;28;20856;-70
2021/12/16 05:38:44;;;;;;;0.50;0.10;;;8.80;1.00;;;;;;5093464;28;20440;-72
2021/12/16 05:41:15;;;;;;;1.50;1.40;;;8.90;1.00;;;;;;5092212;28;20478;-71
2021/12/16 05:43:43;;;;;;;0.50;0.10;;;8.90;1.00;;;;;;5092685;28;20514;-71
2021/12/16 05:46:13;;;;;;;0.50;0.10;;;8.90;1.00;;;;;;5092257;28;20443;-70
2021/12/16 05:48:43;;;;;;;0.50;0.10;;;8.90;1.00;;;;;;5092504;28;20474;-71
2021/12/16 05:51:13;;;;;;;0.50;0.10;;;8.90;1.00;;;;;;5091612;28;20470;-71
2021/12/16 05:53:44;;;;;;;0.50;0.10;;;8.90;1.00;;;;;;5092452;28;20450;-71
2021/12/16 05:56:13;;;;;;;0.50;0.10;;;8.90;1.00;;;;;;5091980;28;20440;-71
2021/12/16 05:58:41;;;;;;;0.50;0.10;;;8.90;1.00;;;;;;5092439;28;20436;-70
2021/12/16 06:01:13;;;;;;;0.50;0.10;;;8.80;1.00;;;;;;5094037;28;20484;-70
2021/12/16 06:03:42;;;;;;;0.50;0.10;;;8.80;1.00;;;;;;5093136;28;20790;-70
2021/12/16 06:06:11;;;;;;;3.63;1.30;;;8.80;1.00;;;;;;5091640;28;20974;-70
2021/12/16 06:08:39;;;;;;;0.87;0.87;;;8.70;1.00;;;;;;5092190;28;20439;-70
2021/12/16 06:11:16;;;;;;;0.50;0.10;;;8.60;1.00;;;;;;5092671;28;20471;-71
2021/12/16 06:13:56;;;;;;;0.50;0.10;;;8.60;1.00;;;;;;5092452;28;20436;-69
2021/12/16 06:27:29;;;;;;;0.50;0.10;;;8.70;1.00;;;;;;5092065;28;20444;-70
2021/12/16 06:29:58;;;;;;;0.50;0.30;;;8.60;1.00;;;;;;5091271;28;20476;-71
2021/12/16 06:32:26;;;;;;;0.50;0.10;;;8.60;1.00;;;;;;5091633;28;20451;-71
2021/12/16 06:34:55;;;;;;;0.50;0.10;;;8.60;1.00;;;;;;5091227;28;20806;-70
2021/12/16 06:37:24;;;;;;;0.50;0.10;;;8.60;1.00;;;;;;5091279;28;20448;-71
2021/12/16 06:39:52;;;;;;;0.50;0.10;;;8.60;1.00;;;;;;5090911;28;20464;-71
2021/12/16 06:42:20;;;;;;;0.50;0.10;;;7.80;1.00;;;;;;5091962;28;20488;-71
2021/12/16 06:44:53;;;;;;;0.53;0.10;;;8.70;1.00;;;;;;5085649;28;20452;-70
2021/12/16 06:47:27;;;;;;;0.50;0.10;;;8.80;1.00;;;;;;5084279;28;20798;-71
2021/12/16 06:49:55;;;;;;;0.50;0.10;;;8.80;1.00;;;;;;5087125;28;20456;-71
2021/12/16 06:52:30;;;;;;;0.50;0.10;;;8.80;1.00;;;;;;5084693;28;20468;-71
2021/12/16 06:55:11;;;;;;;0.50;0.10;;;8.80;1.00;;;;;;5090881;28;20434;-70
2021/12/16 06:57:44;;;;;;;0.50;0.10;;;8.90;1.00;;;;;;5091442;28;20440;-71
2021/12/16 07:00:27;;;;;;;0.60;0.13;;;8.90;1.00;;;;;;5090494;28;21055;-71
2021/12/16 07:03:00;;;;;;;0.50;0.10;;;8.90;1.00;;;;;;5088852;28;20429;-69
2021/12/16 07:05:31;;;;;;;0.50;0.10;;;8.90;1.00;;;;;;5095696;28;20451;-71
2021/12/16 07:08:01;;;;;;;0.83;0.83;;;8.90;1.00;;;;;;5095583;28;20508;-70
2021/12/16 07:10:30;;;;;;;0.50;0.10;;;8.80;1.00;;;;;;5095328;28;20468;-71
2021/12/16 07:13:06;;;;;;;0.50;0.10;;;8.90;1.00;;;;;;5095737;28;20540;-70
2021/12/16 07:15:37;;;;;;;0.50;0.10;;;8.90;1.00;;;;;;5094652;28;20529;-71
2021/12/16 07:18:05;;;;;;;0.50;0.10;;;8.90;1.00;;;;;;5094485;28;20456;-70
2021/12/16 07:20:35;;;;;;;0.50;0.10;;;8.80;1.00;;;;;;5094581;28;20455;-70
2021/12/16 07:23:05;;;;;;;12.07;11.30;;;8.80;1.00;;;;;;5093354;28;20432;-70
2021/12/16 07:25:35;;;;;;;0.50;0.10;;;8.90;1.00;;;;;;5075935;28;20443;-71
2021/12/16 07:28:07;;;;;;;0.50;0.10;;;8.90;1.00;;;;;;5077643;28;20497;-71
2021/12/16 07:30:38;;;;;;;0.50;0.20;;;8.90;1.00;;;;;;5086644;28;20582;-70
2021/12/16 07:33:06;;;;;;;0.50;0.10;;;8.90;1.00;;;;;;5095160;28;20817;-69
2021/12/16 07:35:36;;;;;;;0.50;0.10;;;8.90;1.00;;;;;;5094567;28;20491;-70
2021/12/16 07:38:05;;;;;;;0.50;0.10;;;9.00;1.00;;;;;;5095068;28;20511;-70
2021/12/16 07:40:33;;;;;;;0.50;0.10;;;9.00;1.00;;;;;;5094680;28;20525;-70
2021/12/16 07:43:23;;;;;;;0.50;0.10;;;9.00;1.00;;;;;;5094537;28;20487;-71
2021/12/16 07:45:54;;;;;;;0.50;0.10;;;9.10;1.00;;;;;;5094851;28;20439;-70
2021/12/16 07:48:25;;;;;;;0.50;0.10;;;9.00;1.00;;;;;;5094125;28;20938;-70
2021/12/16 07:50:56;;;;;;;0.50;0.20;;;9.00;1.00;;;;;;5093573;28;20471;-71
2021/12/16 07:53:27;;;;;;;0.50;0.10;;;9.00;1.00;;;;;;5094611;28;20930;-70
2021/12/16 07:55:56;;;;;;;0.50;0.10;;;9.00;1.00;;;;;;5094871;28;20444;-69
2021/12/16 07:58:24;;;;;;;0.60;0.27;;;9.00;1.00;;;;;;5094591;28;20961;-70
2021/12/16 08:00:53;;;;;;;0.50;0.10;;;9.00;1.00;;;;;;5094309;28;20479;-70
2021/12/16 08:03:22;;;;;;;0.60;0.20;;;9.00;1.00;;;;;;5094816;28;20448;-70
2021/12/16 08:05:55;;;;;;;0.50;0.20;;;9.00;1.00;;;;;;5094541;28;20535;-70
2021/12/16 08:08:24;;;;;;;0.50;0.20;;;9.00;1.00;;;;;;5098335;28;20432;-70
2021/12/16 08:10:54;;;;;;;0.60;0.30;;;9.00;1.00;;;;;;5097179;28;20887;-70
2021/12/16 08:13:22;;;;;;;0.50;0.10;;;9.00;1.00;;;;;;5094178;28;20451;-70
2021/12/16 08:15:50;;;;;;;0.50;0.10;;;8.90;1.00;;;;;;5094240;28;20441;-69
2021/12/16 08:18:20;;;;;;;1.27;1.17;;;8.90;1.00;;;;;;5085277;28;20450;-70
2021/12/16 08:20:48;;;;;;;0.50;0.10;;;8.90;1.00;;;;;;5093670;28;20493;-71
2021/12/16 08:23:17;;;;;;;1.80;1.70;;;8.90;1.00;;;;;;5093658;28;20566;-71
2021/12/16 08:25:45;;;;;;;0.50;0.10;;;8.90;1.00;;;;;;5093322;28;20528;-70
2021/12/16 08:28:13;;;;;;;0.50;0.10;;;8.80;1.00;;;;;;5093252;28;20856;-70
2021/12/16 08:30:43;;;;;;;0.60;0.20;;;8.80;1.00;;;;;;5093943;28;20493;-70
2021/12/16 08:33:13;;;;;;;0.50;0.10;;;8.90;1.00;;;;;;5095271;28;20458;-69
2021/12/16 08:35:45;;;;;;;0.50;0.20;;;8.90;1.00;;;;;;5093731;28;20445;-71
2021/12/16 08:38:17;;;;;;;0.50;0.10;;;8.90;1.00;;;;;;5093842;28;20451;-71
2021/12/16 08:40:47;;;;;;;0.50;0.10;;;9.00;1.00;;;;;;5093750;28;20966;-71
2021/12/16 08:43:15;;;;;;;0.50;0.10;;;9.00;1.00;;;;;;5093417;28;20503;-71
2021/12/16 08:45:45;;;;;;;0.50;0.10;;;9.00;1.00;;;;;;5092783;28;20940;-71
2021/12/16 08:48:14;;;;;;;0.50;0.20;;;9.10;1.00;;;;;;5094057;28;20455;-71
2021/12/16 08:50:47;;;;;;;0.50;0.10;;;9.10;1.00;;;;;;5093373;28;20457;-71
2021/12/16 08:53:16;;;;;;;0.50;0.10;;;9.10;1.00;;;;;;5097410;28;20448;-71
2021/12/16 08:55:45;;;;;;;15.23;3.67;;;9.20;1.00;;;;;;5093876;28;20459;-71
2021/12/16 08:58:13;;;;;;;0.50;0.10;;;9.10;1.00;;;;;;5095169;28;20862;-71
2021/12/16 09:00:48;;;;;;;0.70;0.50;;;9.10;1.00;;;;;;5094866;28;20834;-71
2021/12/16 09:03:16;;;;;;;0.60;0.30;;;9.10;1.00;;;;;;5096092;28;20830;-71
2021/12/16 09:05:45;;;;;;;2.77;2.07;;;9.10;1.00;;;;;;5095766;28;20536;-70
2021/12/16 09:08:13;;;;;;;0.60;0.20;;;9.00;1.00;;;;;;5094214;28;20452;-70
2021/12/16 09:10:41;;;;;;;1.37;1.27;;;9.00;1.00;;;;;;5093159;28;20846;-71
2021/12/16 09:13:14;;;;;;;0.60;0.40;;;9.00;1.00;;;;;;5089558;28;20863;-70
2021/12/16 09:15:46;;;;;;;0.50;0.10;;;9.00;1.00;;;;;;5092192;28;20547;-71
2021/12/16 09:18:15;;;;;;;0.50;0.10;;;9.00;1.00;;;;;;5093452;28;20451;-73
2021/12/16 09:20:44;;;;;;;0.60;0.10;;;;;;;;;;5094442;28;20460;-73
2021/12/16 09:23:14;;;;;;;0.50;0.10;;;9.00;1.00;;;;;;5095284;28;20512;-71
2021/12/16 09:25:44;;;;;;;0.50;0.20;;;9.10;1.00;;;;;;5092371;28;20810;-72
2021/12/16 09:28:14;;;;;;;0.50;0.10;;;9.10;1.00;;;;;;5093391;28;20446;-70
2021/12/16 09:30:43;;;;;;;0.50;0.10;;;9.10;1.00;;;;;;5095272;28;20468;-71
2021/12/16 09:33:14;;;;;;;0.50;0.10;;;9.10;1.00;;;;;;5097348;28;20439;-71
2021/12/16 09:35:46;;;;;;;0.60;0.10;;;9.20;1.00;;;;;;5095882;28;20453;-71
2021/12/16 09:38:17;;;;;;;0.50;0.10;;;9.30;1.00;;;;;;5095138;28;20938;-70
2021/12/16 09:40:51;;;;;;;0.50;0.10;;;9.40;1.00;;;;;;5094179;28;20464;-71
2021/12/16 09:43:22;;;;;;;0.60;0.37;;;9.50;1.00;;;;;;5096182;28;20477;-71
2021/12/16 09:45:52;;;;;;;0.50;0.10;;;9.60;1.00;;;;;;5094119;28;20454;-72
2021/12/16 09:48:21;;;;;;;0.57;0.20;;;9.70;1.00;;;;;;5092660;28;20933;-70
2021/12/16 09:50:50;;;;;;;0.50;0.10;;;9.70;1.00;;;;;;5092410;28;20486;-71
2021/12/16 09:53:20;;;;;;;0.50;0.10;;;9.80;1.00;;;;;;5092153;28;20440;-71
2021/12/16 09:55:57;;;;;;;0.50;0.10;;;9.90;1.00;;;;;;5092061;28;20970;-72
2021/12/16 09:58:30;;;;;;;0.60;0.10;;;9.90;1.00;;;;;;5092966;28;20451;-72
2021/12/16 10:01:00;;;;;;;0.53;0.10;;;9.90;1.00;;;;;;5092707;28;20470;-71
2021/12/16 10:03:28;;;;;;;0.60;0.10;;;9.90;1.00;;;;;;5090664;28;20472;-71
2021/12/16 10:05:57;;;;;;;0.50;0.10;;;10.00;1.00;;;;;;5088248;28;20460;-72
2021/12/16 10:08:27;;;;;;;0.53;0.10;;;10.00;1.00;;;;;;5092694;28;20444;-71
2021/12/16 10:10:55;;;;;;;0.60;0.10;;;10.00;1.00;;;;;;5095315;28;20487;-72
2021/12/16 10:13:34;;;;;;;0.53;0.10;;;10.10;1.00;;;;;;5092575;28;20519;-71
2021/12/16 10:18:49;;;;;;;0.50;0.10;;;10.20;1.00;;;;;;5073099;28;20429;-72
2021/12/16 10:21:22;;;;;;;0.60;0.10;;;10.20;1.00;;;;;;5071562;28;20440;-71
2021/12/16 10:23:52;;;;;;;0.60;0.10;;;10.20;1.00;;;;;;5073470;28;20483;-71
2021/12/16 10:26:23;;;;;;;0.60;0.10;;;10.20;1.00;;;;;;5086763;28;20864;-71
2021/12/16 10:28:54;;;;;;;0.60;0.10;;;10.20;1.00;;;;;;5091891;28;20449;-71
2021/12/16 10:31:24;;;;;;;0.50;0.10;;;10.20;1.00;;;;;;5091950;28;20447;-72
2021/12/16 10:33:57;;;;;;;0.60;0.10;;;10.20;1.00;;;;;;5092493;28;20471;-69
2021/12/16 10:36:27;;;;;;;0.53;0.10;;;10.20;1.00;;;;;;5091473;28;20448;-71
2021/12/16 10:39:00;;;;;;;0.60;0.10;;;10.20;1.00;;;;;;5091896;28;20961;-71
2021/12/16 10:41:31;;;;;;;0.60;0.10;;;10.20;1.00;;;;;;5091864;28;20444;-71
2021/12/16 10:44:05;;;;;;;0.60;0.10;;;10.20;1.00;;;;;;5091754;28;20515;-71
2021/12/16 10:46:38;;;;;;;0.60;0.10;;;10.30;1.00;;;;;;5091357;28;20498;-71
2021/12/16 10:49:08;;;;;;;1.13;0.97;;;10.20;1.00;;;;;;5091885;28;20490;-71
2021/12/16 10:51:38;;;;;;;0.60;0.10;;;10.20;1.00;;;;;;5091671;28;20534;-71
2021/12/16 10:54:12;;;;;;;0.50;0.10;;;10.20;1.00;;;;;;5091850;28;20448;-70
2021/12/16 10:56:45;;;;;;;0.60;0.10;;;10.20;1.00;;;;;;5092285;28;20448;-71
2021/12/16 10:59:16;;;;;;;0.60;0.10;;;10.30;1.00;;;;;;5092836;28;20471;-73
2021/12/16 11:01:57;;;;;;;0.60;0.10;;;10.30;1.00;;;;;;5091836;28;20958;-71
2021/12/16 11:04:31;;;;;;;0.60;0.10;;;10.30;1.00;;;;;;5090814;28;20490;-71
2021/12/16 11:07:03;;;;;;;0.60;0.10;;;10.30;1.00;;;;;;5091308;28;20440;-72
2021/12/16 11:09:41;;;;;;;0.60;0.10;;;10.40;1.00;;;;;;5091104;28;20498;-70
2021/12/16 11:12:16;;;;;;;0.60;0.10;;;10.40;1.00;;;;;;5091057;28;20452;-71
2021/12/16 11:14:48;;;;;;;0.60;0.10;;;10.40;1.00;;;;;;5090756;28;20441;-72
2021/12/16 11:17:18;;;;;;;0.60;0.10;;;10.40;1.00;;;;;;5091366;28;20455;-71
2021/12/16 11:19:54;;;;;;;0.60;0.10;;;10.40;1.00;;;;;;5091572;28;20468;-69
2021/12/16 11:22:26;;;;;;;0.60;0.10;;;10.30;1.00;;;;;;5091825;28;20435;-70
2021/12/16 11:24:56;;;;;;;0.60;0.10;;;10.30;1.00;;;;;;5091274;28;20511;-71
2021/12/16 11:27:34;;;;;;;7.60;7.10;;;10.30;1.00;;;;;;5091527;28;20437;-71
2021/12/16 11:30:28;;;;;;;0.60;0.10;;;10.20;1.00;;;;;;5092494;28;20467;-71
2021/12/16 11:33:11;;;;;;;0.60;0.10;;;10.20;1.00;;;;;;5092141;28;20444;-72
2021/12/16 11:35:55;;;;;;;0.60;0.10;;;10.20;1.00;;;;;;5091692;28;20432;-72
2021/12/16 11:38:34;;;;;;;0.60;0.10;;;10.20;1.00;;;;;;5091383;28;20961;-72
2021/12/16 11:41:11;;;;;;;0.60;0.10;;;10.20;1.00;;;;;;5090860;28;20464;-71
2021/12/16 11:43:51;;;;;;;0.60;0.20;;;10.20;1.00;;;;;;5090360;28;20504;-71
2021/12/16 11:46:25;;;;;;;2.83;2.57;;;10.30;1.00;;;;;;5090472;28;20527;-72
2021/12/16 11:49:21;;;;;;;0.60;0.10;;;10.30;1.00;;;;;;5093785;28;20457;-70
2021/12/16 11:51:52;;;;;;;0.60;0.10;;;10.30;1.00;;;;;;5094399;28;20447;-70
2021/12/16 11:54:24;;;;;;;0.57;0.10;;;10.30;1.00;;;;;;5094249;28;20448;-71
2021/12/16 11:56:58;;;;;;;0.60;0.20;;;10.30;1.00;;;;;;5095202;28;20459;-72
2021/12/16 11:59:29;;;;;;;0.67;0.40;;;10.30;1.00;;;;;;5092999;28;20504;-70
2021/12/16 12:01:58;;;;;;;0.60;0.10;;;10.30;1.00;;;;;;5093885;28;20437;-71
2021/12/16 12:04:34;;;;;;;0.60;0.10;;;10.30;1.00;;;;;;5095008;28;20476;-70
2021/12/16 12:07:10;;;;;;;0.60;0.10;;;10.30;1.00;;;;;;5094557;28;20815;-71
2021/12/16 12:09:41;;;;;;;0.50;0.10;;;10.30;1.00;;;;;;5094124;28;20484;-70
2021/12/16 12:12:11;;;;;;;1.77;1.53;;;10.30;1.00;;;;;;5094351;28;20511;-72
2021/12/16 12:14:43;;;;;;;1.07;1.07;;;10.40;1.00;;;;;;5093633;28;20444;-70
2021/12/16 12:17:16;;;;;;;0.50;0.10;;;10.40;1.00;;;;;;5089261;28;20440;-72
2021/12/16 12:19:46;;;;;;;0.60;0.10;;;10.40;1.00;;;;;;5073851;28;20454;-71
2021/12/16 12:22:16;;;;;;;0.60;0.10;;;10.40;1.00;;;;;;5073900;28;20437;-71
2021/12/16 12:24:46;;;;;;;0.60;0.10;;;10.30;1.00;;;;;;5077693;28;20472;-71
2021/12/16 12:27:19;;;;;;;0.50;0.10;;;10.30;1.00;;;;;;5093701;28;20501;-71
2021/12/16 12:29:50;;;;;;;0.60;0.10;;;10.30;1.00;;;;;;5094360;28;20799;-71
2021/12/16 12:32:21;;;;;;;0.60;0.10;;;10.30;1.00;;;;;;5094164;28;20501;-71
2021/12/16 12:34:52;;;;;;;0.60;0.10;;;10.30;1.00;;;;;;5094468;28;20445;-70
2021/12/16 12:37:22;;;;;;;0.60;0.10;;;10.40;1.00;;;;;;5094327;28;20440;-71
2021/12/16 12:39:53;;;;;;;0.60;0.10;;;10.50;1.00;;;;;;5094713;28;20467;-71
2021/12/16 12:42:23;;;;;;;0.60;0.10;;;10.50;1.00;;;;;;5095578;28;20455;-71
2021/12/16 12:44:51;;;;;;;0.60;0.10;;;10.60;1.00;;;;;;5094815;28;20476;-71
2021/12/16 12:47:22;;;;;;;0.60;0.10;;;10.60;1.00;;;;;;5094084;28;20522;-72
2021/12/16 12:49:50;;;;;;;0.60;0.10;;;10.70;1.00;;;;;;5093958;28;20493;-73
2021/12/16 12:52:20;;;;;;;0.60;0.10;;;10.70;1.00;;;;;;5094068;28;20479;-72
2021/12/16 12:55:01;;;;;;;0.60;0.20;;;10.80;1.00;;;;;;5093477;28;20497;-71
2021/12/16 12:57:32;;;;;;;0.60;0.10;;;10.80;1.00;;;;;;5094000;28;20444;-73
2021/12/16 13:00:01;;;;;;;0.60;0.10;;;10.90;1.00;;;;;;5094569;28;20465;-72
2021/12/16 13:02:33;;;;;;;0.60;0.10;;;10.90;1.00;;;;;;5094894;28;20489;-71
2021/12/16 13:05:07;;;;;;;0.60;0.10;;;10.90;1.00;;;;;;5094485;28;20472;-71
2021/12/16 13:07:37;;;;;;;0.60;0.10;;;10.90;1.00;;;;;;5094108;28;20479;-72
2021/12/16 13:10:13;;;;;;;0.60;0.10;;;11.00;1.00;;;;;;5093672;28;20468;-72
2021/12/16 13:12:48;;;;;;;0.60;0.10;;;11.00;1.00;;;;;;5095676;28;20436;-71
2021/12/16 13:15:44;;;;;;;0.60;0.10;;;11.00;1.00;;;;;;5092954;28;20509;-72
2021/12/16 13:24:24;;;;;;;1.00;0.93;;;11.10;1.00;;;;;;5093183;28;21031;-72
2021/12/16 13:27:05;;;;;;;0.60;0.10;;;11.10;1.00;;;;;;5095928;28;20453;-70
2021/12/16 13:29:39;;;;;;;0.60;0.20;;;11.10;1.00;;;;;;5095723;28;20456;-71
2021/12/16 13:32:13;;;;;;;0.60;0.10;;;11.00;1.00;;;;;;5092692;28;20439;-72
2021/12/16 13:34:49;;;;;;;0.60;0.10;;;11.10;1.00;;;;;;5091999;28;20520;-70
2021/12/16 13:37:24;;;;;;;0.60;0.10;;;11.10;1.00;;;;;;5092609;28;20451;-72
2021/12/16 13:39:56;;;;;;;0.60;0.10;;;11.10;1.00;;;;;;5092491;28;20466;-70
2021/12/16 13:42:25;;;;;;;0.60;0.10;;;11.10;1.00;;;;;;5092390;28;20536;-71
2021/12/16 13:45:02;;;;;;;0.60;0.10;;;11.10;1.00;;;;;;5091073;28;20729;-71
2021/12/16 13:47:51;;;;;;;0.60;0.10;;;11.10;1.00;;;;;;5092557;28;20486;-71
2021/12/16 14:01:57;;;;;;;0.60;0.10;;;11.10;1.00;;;;;;5073719;28;20440;-71
2021/12/16 14:04:55;;;;;;;0.60;0.10;;;11.00;1.00;;;;;;5092197;28;20484;-70
2021/12/16 14:07:53;;;;;;;0.60;0.10;;;11.00;1.00;;;;;;5091752;28;21052;-72
2021/12/16 14:10:48;;;;;;;0.60;0.10;;;11.00;1.00;;;;;;5090714;28;20559;-71
2021/12/16 14:16:22;;;;;;;0.60;0.10;;;10.90;1.00;;;;;;5070225;28;20448;-72
2021/12/16 14:25:18;;;;;;;0.60;0.10;;;10.90;1.00;;;;;;5091515;28;20482;-72
2021/12/16 14:42:17;;;;;;;0.60;0.10;;;10.90;1.00;;;;;;5072579;28;20441;-73
2021/12/16 14:47:58;;;;;;;0.60;0.10;;;10.90;1.00;;;;;;5071388;28;20438;-73
2021/12/16 14:50:30;;;;;;;0.60;0.10;;;10.90;1.00;;;;;;5081412;28;20468;-71
2021/12/16 14:53:00;;;;;;;0.60;0.10;;;10.90;1.00;;;;;;5091640;28;20437;-71
2021/12/16 14:55:28;;;;;;;0.60;0.10;;;10.90;1.00;;;;;;5091515;28;20441;-71
2021/12/16 14:57:59;;;;;;;0.60;0.10;;;10.90;1.00;;;;;;5092730;28;20858;-71
2021/12/16 15:00:38;;;;;;;0.60;0.10;;;10.90;1.00;;;;;;5092958;28;20467;-71
2021/12/16 15:03:11;;;;;;;0.60;0.10;;;10.90;1.00;;;;;;5092984;28;20444;-72
2021/12/16 15:05:44;;;;;;;0.60;0.10;;;10.90;1.00;;;;;;5091729;28;21016;-74
2021/12/16 15:08:22;;;;;;;0.60;0.10;;;11.40;1.00;;;;;;5091057;28;20440;-70
2021/12/16 15:10:50;;;;;;;0.60;0.10;;;10.90;1.00;;;;;;5113350;22;20500;-70
2021/12/16 15:13:24;;;;;;;0.60;0.10;;;10.90;1.00;;;;;;5072504;28;20448;-69
2021/12/16 15:35:55;;;;;;;0.60;0.10;;;10.70;1.00;;;;;;5069788;28;21074;-70
2021/12/16 15:38:41;;;;;;;0.60;0.20;;;10.60;1.00;;;;;;5067855;28;20456;-69
2021/12/16 15:43:57;;;;;;;0.60;0.10;;;10.60;1.00;;;;;;5074497;28;20433;-69
2021/12/16 15:46:29;;;;;;;0.60;0.10;;;10.60;1.00;;;;;;5074319;28;20580;-68
2021/12/16 15:48:57;;;;;;;0.60;0.10;;;10.50;1.00;;;;;;5074796;28;20464;-68
2021/12/16 15:51:25;;;;;;;0.60;0.10;;;10.60;1.00;;;;;;5075679;28;20473;-68
2021/12/16 15:53:58;;;;;;;0.60;0.10;;;10.50;1.00;;;;;;5074822;28;20445;-70
2021/12/16 15:56:29;;;;;;;0.60;0.20;;;10.60;1.00;;;;;;5074764;28;20437;-70
2021/12/16 15:59:02;;;;;;;0.60;0.10;;;10.60;1.00;;;;;;5075193;28;20570;-69
2021/12/16 16:01:32;;;;;;;0.60;0.10;;;10.60;1.00;;;;;;5075267;28;20823;-70
2021/12/16 16:04:04;;;;;;;0.60;0.10;;;10.60;1.00;;;;;;5075116;28;20801;-68
2021/12/16 16:06:32;;;;;;;0.50;0.10;;;10.60;1.00;;;;;;5074827;28;20564;-69
2021/12/16 16:09:10;;;;;;;0.60;0.10;;;10.50;1.00;;;;;;5074426;28;20449;-69
2021/12/16 16:11:44;;;;;;;0.60;0.10;;;10.50;1.00;;;;;;5074312;28;20553;-69
2021/12/16 16:14:12;;;;;;;0.60;0.10;;;10.50;1.00;;;;;;5074243;28;20852;-69
2021/12/16 16:16:53;;;;;;;0.53;0.10;;;10.60;1.00;;;;;;5074217;28;20448;-70
2021/12/16 16:19:24;;;;;;;0.60;0.10;;;10.60;1.00;;;;;;5074065;28;20566;-69
2021/12/16 16:21:55;;;;;;;0.87;0.80;;;10.50;1.00;;;;;;5074074;28;20457;-69